Time;durP1;ratioP1;P1;durP2;ratioP2;P2;SDS_P1;SDS_P2;PMS_P1;PMS_P2;Temp;Humidity;BMP_temperature;BMP_pressure;BME280_temperature;BME280_humidity;BME280_pressure;Samples;Min_cycle;Max_cycle;Signal;HPM_P1;HPM_P2
2023/04/20 05:00:34;;;;;;;8.13;7.20;;;;;;;;;;1756083;28;20285;-65
2023/04/20 05:01:25;;;;;;;11.25;7.82;;;;;;;;;;1756060;28;20204;-66
2023/04/20 05:02:17;;;;;;;9.52;7.90;;;;;;;;;;1755171;28;20190;-65
2023/04/20 05:03:08;;;;;;;8.88;7.82;;;;;;;;;;1755941;28;20582;-66
2023/04/20 05:04:00;;;;;;;8.73;7.88;;;;;;;;;;1755736;28;20193;-66
2023/04/20 05:04:52;;;;;;;9.52;8.25;;;;;;;;;;1755760;28;20329;-66
2023/04/20 05:05:43;;;;;;;9.13;8.20;;;;;;;;;;1755823;28;20240;-66
2023/04/20 05:06:35;;;;;;;8.02;7.03;;;;;;;;;;1755583;28;20202;-65
2023/04/20 05:07:26;;;;;;;9.35;7.55;;;;;;;;;;1755933;28;20202;-65
2023/04/20 05:08:18;;;;;;;7.97;7.07;;;;;;;;;;1755868;28;20217;-66
2023/04/20 05:09:09;;;;;;;8.88;7.22;;;;;;;;;;1755916;28;20204;-66
2023/04/20 05:10:01;;;;;;;8.30;7.50;;;;;;;;;;1756030;28;20194;-66
2023/04/20 05:10:52;;;;;;;8.80;7.75;;;;;;;;;;1755806;28;20222;-66
2023/04/20 05:11:44;;;;;;;7.60;6.90;;;;;;;;;;1755619;28;20215;-66
2023/04/20 05:12:35;;;;;;;8.35;7.20;;;;;;;;;;1756024;28;20661;-66
2023/04/20 05:13:27;;;;;;;9.07;8.10;;;;;;;;;;1755978;28;20201;-66
2023/04/20 05:14:18;;;;;;;8.20;7.50;;;;;;;;;;1755938;28;20240;-66
2023/04/20 05:15:11;;;;;;;8.20;7.47;;;;;;;;;;1755756;28;20198;-66
2023/04/20 05:16:03;;;;;;;8.93;8.02;;;;;;;;;;1755974;28;20201;-66
2023/04/20 05:16:55;;;;;;;7.20;6.50;;;;;;;;;;1755515;28;20644;-65
2023/04/20 05:17:48;;;;;;;8.73;7.35;;;;;;;;;;1755951;28;20688;-66
2023/04/20 05:18:40;;;;;;;9.80;8.18;;;;;;;;;;1755906;28;20204;-65
2023/04/20 05:19:31;;;;;;;10.93;8.48;;;;;;;;;;1755891;28;20204;-66
2023/04/20 05:20:23;;;;;;;12.13;8.15;;;;;;;;;;1755728;28;20202;-66
2023/04/20 05:21:14;;;;;;;8.40;6.63;;;;;;;;;;1755856;28;20194;-66
2023/04/20 05:22:06;;;;;;;7.95;7.15;;;;;;;;;;1755983;28;20656;-68
2023/04/20 05:22:57;;;;;;;8.23;7.32;;;;;;;;;;1755774;28;20202;-68
2023/04/20 05:23:49;;;;;;;9.60;7.50;;;;;;;;;;1755865;28;20471;-66
2023/04/20 05:24:41;;;;;;;7.88;7.07;;;;;;;;;;1755864;28;20198;-66
2023/04/20 05:25:33;;;;;;;8.25;7.45;;;;;;;;;;1755534;28;20198;-66
2023/04/20 05:26:24;;;;;;;8.02;7.28;;;;;;;;;;1755481;28;20217;-66
2023/04/20 05:27:16;;;;;;;13.95;7.35;;;;;;;;;;1755745;28;20202;-66
2023/04/20 05:28:07;;;;;;;10.55;7.03;;;;;;;;;;1755788;28;20197;-66
2023/04/20 05:29:00;;;;;;;8.63;7.05;;;;;;;;;;1755784;28;20251;-66
2023/04/20 05:29:51;;;;;;;9.55;7.43;;;;;;;;;;1755824;28;20202;-65
2023/04/20 05:30:43;;;;;;;9.70;7.40;;;;;;;;;;1755631;28;20689;-65
2023/04/20 05:31:36;;;;;;;10.25;7.75;;;;;;;;;;1755872;28;20670;-66
2023/04/20 05:32:28;;;;;;;11.82;8.18;;;;;;;;;;1755795;28;20688;-66
2023/04/20 05:33:19;;;;;;;8.80;7.90;;;;;;;;;;1755862;28;20259;-66
2023/04/20 05:34:11;;;;;;;8.23;7.53;;;;;;;;;;1755846;28;20194;-66
2023/04/20 05:35:02;;;;;;;7.95;7.18;;;;;;;;;;1755794;28;20230;-66
2023/04/20 05:35:56;;;;;;;8.73;7.25;;;;;;;;;;1755849;28;20194;-66
2023/04/20 05:36:47;;;;;;;8.02;7.32;;;;;;;;;;1755399;28;20198;-66
2023/04/20 05:37:39;;;;;;;8.30;7.50;;;;;;;;;;1755797;28;20205;-66
2023/04/20 05:38:30;;;;;;;7.40;6.70;;;;;;;;;;1755748;28;20206;-66
2023/04/20 05:39:23;;;;;;;7.75;6.90;;;;;;;;;;1755804;28;20251;-66
2023/04/20 05:40:14;;;;;;;9.35;7.78;;;;;;;;;;1755472;28;20198;-66
2023/04/20 05:41:06;;;;;;;8.52;7.70;;;;;;;;;;1755638;28;20194;-65
2023/04/20 05:41:57;;;;;;;8.18;7.35;;;;;;;;;;1755657;28;20237;-65
2023/04/20 05:42:49;;;;;;;7.80;7.05;;;;;;;;;;1755780;28;20680;-66
2023/04/20 05:43:40;;;;;;;7.53;6.78;;;;;;;;;;1755717;28;20202;-66
2023/04/20 05:44:35;;;;;;;7.25;6.55;;;;;;;;;;1755714;28;20224;-66
2023/04/20 05:45:26;;;;;;;7.68;6.90;;;;;;;;;;1755916;28;20206;-66
2023/04/20 05:46:18;;;;;;;9.30;7.32;;;;;;;;;;1755291;28;20216;-66
2023/04/20 05:47:11;;;;;;;8.40;7.38;;;;;;;;;;1755652;28;20201;-66
2023/04/20 05:48:03;;;;;;;10.07;7.10;;;;;;;;;;1755754;28;20339;-66
2023/04/20 05:48:54;;;;;;;7.10;6.40;;;;;;;;;;1755701;28;20201;-65
2023/04/20 05:49:46;;;;;;;7.70;6.90;;;;;;;;;;1755727;28;20198;-65
2023/04/20 05:50:37;;;;;;;8.02;7.22;;;;;;;;;;1755262;28;20235;-66
2023/04/20 05:51:32;;;;;;;7.55;6.85;;;;;;;;;;1755472;28;20256;-65
2023/04/20 05:52:23;;;;;;;8.65;7.13;;;;;;;;;;1755753;28;20536;-65
2023/04/20 05:53:15;;;;;;;7.50;6.85;;;;;;;;;;1754911;28;20202;-66
2023/04/20 05:54:06;;;;;;;8.00;7.20;;;;;;;;;;1755667;28;20213;-66
2023/04/20 05:54:59;;;;;;;7.93;6.97;;;;;;;;;;1755606;28;20198;-65
2023/04/20 05:55:50;;;;;;;8.10;6.60;;;;;;;;;;1755686;28;20677;-66
2023/04/20 05:56:42;;;;;;;8.20;7.40;;;;;;;;;;1755310;28;20247;-66
2023/04/20 05:57:33;;;;;;;8.25;7.28;;;;;;;;;;1755559;28;20208;-66
2023/04/20 05:58:26;;;;;;;10.75;7.47;;;;;;;;;;1755624;28;20208;-66
2023/04/20 05:59:17;;;;;;;8.52;7.45;;;;;;;;;;1755559;28;20198;-66
2023/04/20 06:00:10;;;;;;;8.80;7.93;;;;;;;;;;1755719;28;20201;-66
2023/04/20 06:01:02;;;;;;;8.13;7.32;;;;;;;;;;1755518;28;20355;-66
2023/04/20 06:01:55;;;;;;;8.23;7.43;;;;;;;;;;1755574;28;20193;-66
2023/04/20 06:02:47;;;;;;;10.30;7.53;;;;;;;;;;1755675;28;20814;-66
2023/04/20 06:03:39;;;;;;;18.88;9.00;;;;;;;;;;1755639;28;20255;-66
2023/04/20 06:04:30;;;;;;;9.25;8.35;;;;;;;;;;1755334;28;20564;-65
2023/04/20 06:05:22;;;;;;;10.07;8.00;;;;;;;;;;1755360;28;20194;-66
2023/04/20 06:06:13;;;;;;;13.50;8.90;;;;;;;;;;1755332;28;20559;-66
2023/04/20 06:07:06;;;;;;;12.10;8.40;;;;;;;;;;1755198;28;20205;-66
2023/04/20 06:07:57;;;;;;;8.80;7.30;;;;;;;;;;1755436;28;20215;-66
2023/04/20 06:08:49;;;;;;;7.97;7.18;;;;;;;;;;1755497;28;20222;-67
2023/04/20 06:09:40;;;;;;;7.63;7.03;;;;;;;;;;1755555;28;20236;-66
2023/04/20 06:10:33;;;;;;;7.80;7.05;;;;;;;;;;1755429;28;20197;-67
2023/04/20 06:11:24;;;;;;;7.93;7.10;;;;;;;;;;1755528;28;20316;-65
2023/04/20 06:12:16;;;;;;;9.35;7.63;;;;;;;;;;1752057;28;20208;-65
2023/04/20 06:13:07;;;;;;;8.35;7.50;;;;;;;;;;1750432;28;20230;-66
2023/04/20 06:14:00;;;;;;;8.70;7.07;;;;;;;;;;1752446;28;20186;-66
2023/04/20 06:14:51;;;;;;;10.35;6.95;;;;;;;;;;1747737;28;20604;-67
2023/04/20 06:15:44;;;;;;;8.25;7.22;;;;;;;;;;1748012;28;20209;-66
2023/04/20 06:16:35;;;;;;;7.72;6.57;;;;;;;;;;1753706;28;20632;-66
2023/04/20 06:17:27;;;;;;;11.82;7.40;;;;;;;;;;1755324;28;20202;-66
2023/04/20 06:18:20;;;;;;;7.95;7.20;;;;;;;;;;1754813;28;20578;-66
2023/04/20 06:19:13;;;;;;;8.93;7.30;;;;;;;;;;1754145;28;20198;-66
2023/04/20 06:20:05;;;;;;;7.78;7.00;;;;;;;;;;1754929;28;20258;-67
2023/04/20 06:20:58;;;;;;;8.40;7.10;;;;;;;;;;1754840;28;20344;-67
2023/04/20 06:21:49;;;;;;;8.65;7.78;;;;;;;;;;1755209;28;20205;-66
2023/04/20 06:22:45;;;;;;;10.38;8.05;;;;;;;;;;1755407;28;20240;-66
2023/04/20 06:23:37;;;;;;;7.38;6.68;;;;;;;;;;1755289;28;20234;-66
2023/04/20 06:24:29;;;;;;;8.10;7.35;;;;;;;;;;1755381;28;20286;-65
2023/04/20 06:25:20;;;;;;;8.85;7.90;;;;;;;;;;1755331;28;20198;-65
2023/04/20 06:26:12;;;;;;;8.70;7.28;;;;;;;;;;1755267;28;20277;-65
2023/04/20 06:27:03;;;;;;;8.48;7.07;;;;;;;;;;1755013;28;20202;-65
2023/04/20 06:27:55;;;;;;;8.00;7.22;;;;;;;;;;1754400;28;20228;-63
2023/04/20 06:28:47;;;;;;;10.15;7.95;;;;;;;;;;1747050;28;20202;-66
2023/04/20 06:29:39;;;;;;;9.20;8.05;;;;;;;;;;1748335;28;20271;-65
2023/04/20 06:30:32;;;;;;;8.02;7.32;;;;;;;;;;1748166;28;20256;-65
2023/04/20 06:31:23;;;;;;;9.02;7.65;;;;;;;;;;1751412;28;20595;-65
2023/04/20 06:32:15;;;;;;;8.68;7.88;;;;;;;;;;1755361;28;20212;-66
2023/04/20 06:33:07;;;;;;;9.02;8.13;;;;;;;;;;1754134;28;20202;-65
2023/04/20 06:34:00;;;;;;;9.93;8.30;;;;;;;;;;1752037;28;20212;-65
2023/04/20 06:34:52;;;;;;;7.97;7.28;;;;;;;;;;1747665;28;20201;-65
2023/04/20 06:35:43;;;;;;;9.00;8.10;;;;;;;;;;1747389;28;20206;-65
2023/04/20 06:36:35;;;;;;;8.80;7.90;;;;;;;;;;1747460;28;20210;-65
2023/04/20 06:37:26;;;;;;;8.88;7.97;;;;;;;;;;1748187;28;20202;-68
2023/04/20 06:38:18;;;;;;;8.50;7.70;;;;;;;;;;1748186;28;20277;-65
2023/04/20 06:39:10;;;;;;;8.50;7.70;;;;;;;;;;1747486;28;20210;-66
2023/04/20 06:40:04;;;;;;;8.18;7.40;;;;;;;;;;1748131;28;20209;-65
2023/04/20 06:40:57;;;;;;;8.55;7.85;;;;;;;;;;1748268;28;20798;-64
2023/04/20 06:41:49;;;;;;;7.93;7.22;;;;;;;;;;1747438;28;20218;-65
2023/04/20 06:42:40;;;;;;;8.40;7.50;;;;;;;;;;1748230;28;20688;-65
2023/04/20 06:43:32;;;;;;;9.00;8.20;;;;;;;;;;1748186;28;20194;-65
2023/04/20 06:44:23;;;;;;;11.50;8.82;;;;;;;;;;1748357;28;20199;-68
2023/04/20 06:45:17;;;;;;;9.80;7.95;;;;;;;;;;1748140;28;20252;-68
2023/04/20 06:46:08;;;;;;;8.48;7.75;;;;;;;;;;1748098;28;20194;-65
2023/04/20 06:47:00;;;;;;;8.20;7.40;;;;;;;;;;1747300;28;20676;-66
2023/04/20 06:47:51;;;;;;;8.52;7.72;;;;;;;;;;1748506;28;20229;-65
2023/04/20 06:48:43;;;;;;;8.73;7.90;;;;;;;;;;1751487;28;20646;-65
2023/04/20 06:49:36;;;;;;;9.02;8.23;;;;;;;;;;1747183;28;20791;-65
2023/04/20 06:50:28;;;;;;;8.60;7.70;;;;;;;;;;1751341;28;20566;-66
2023/04/20 06:51:19;;;;;;;8.55;7.32;;;;;;;;;;1754936;28;20233;-66
2023/04/20 06:52:11;;;;;;;8.68;7.80;;;;;;;;;;1755203;28;20205;-65
2023/04/20 06:53:03;;;;;;;8.30;7.38;;;;;;;;;;1755121;28;20208;-65
2023/04/20 06:53:55;;;;;;;9.18;8.27;;;;;;;;;;1755130;28;20194;-64
2023/04/20 06:54:46;;;;;;;8.43;7.60;;;;;;;;;;1755231;28;20209;-65
2023/04/20 06:55:38;;;;;;;8.65;7.70;;;;;;;;;;1755192;28;20198;-65
2023/04/20 06:56:29;;;;;;;10.70;8.75;;;;;;;;;;1754441;28;20202;-64
2023/04/20 06:57:21;;;;;;;8.35;7.57;;;;;;;;;;1755044;28;20205;-64
2023/04/20 06:58:13;;;;;;;9.05;8.00;;;;;;;;;;1754588;28;20251;-64
2023/04/20 06:59:04;;;;;;;8.10;7.30;;;;;;;;;;1755328;28;20665;-64
2023/04/20 06:59:57;;;;;;;10.13;9.13;;;;;;;;;;1755124;28;20198;-64
2023/04/20 07:00:48;;;;;;;8.98;8.18;;;;;;;;;;1754964;28;20217;-64
2023/04/20 07:01:41;;;;;;;9.95;8.25;;;;;;;;;;1755158;28;20197;-63
2023/04/20 07:02:41;;;;;;;8.15;7.45;;;;;;;;;;1755411;28;20229;-63
2023/04/20 07:03:33;;;;;;;10.95;8.38;;;;;;;;;;1755251;28;20221;-64
2023/04/20 07:04:24;;;;;;;8.98;8.07;;;;;;;;;;1755022;28;20205;-64
2023/04/20 07:05:19;;;;;;;9.13;8.20;;;;;;;;;;1754557;28;20198;-64
2023/04/20 07:06:10;;;;;;;7.78;6.97;;;;;;;;;;1755224;28;20810;-64
2023/04/20 07:07:02;;;;;;;12.63;7.53;;;;;;;;;;1754318;28;20198;-65
2023/04/20 07:07:53;;;;;;;9.25;8.18;;;;;;;;;;1755073;28;20205;-64
2023/04/20 07:08:46;;;;;;;10.05;8.27;;;;;;;;;;1755155;28;20721;-64
2023/04/20 07:09:37;;;;;;;8.88;8.02;;;;;;;;;;1754992;28;20684;-64
2023/04/20 07:10:29;;;;;;;9.88;8.95;;;;;;;;;;1755020;28;20202;-64
2023/04/20 07:11:20;;;;;;;8.05;7.30;;;;;;;;;;1755055;28;20209;-65
2023/04/20 07:12:14;;;;;;;9.30;8.30;;;;;;;;;;1754970;28;20190;-64
2023/04/20 07:13:05;;;;;;;9.07;8.18;;;;;;;;;;1755066;28;20239;-64
2023/04/20 07:13:57;;;;;;;8.27;7.22;;;;;;;;;;1754929;28;20190;-64
2023/04/20 07:14:48;;;;;;;9.00;8.10;;;;;;;;;;1754920;28;20202;-64
2023/04/20 07:15:42;;;;;;;9.23;8.18;;;;;;;;;;1754541;28;20659;-64
2023/04/20 07:16:33;;;;;;;9.10;8.02;;;;;;;;;;1754046;28;21062;-65
2023/04/20 07:17:28;;;;;;;9.40;8.45;;;;;;;;;;1753984;28;20205;-65
2023/04/20 07:18:19;;;;;;;10.13;9.00;;;;;;;;;;1754944;28;20285;-65
2023/04/20 07:19:11;;;;;;;9.50;8.45;;;;;;;;;;1755023;28;20190;-65
2023/04/20 07:20:06;;;;;;;8.73;7.95;;;;;;;;;;1755032;28;20209;-65
2023/04/20 07:20:59;;;;;;;8.95;8.13;;;;;;;;;;1754837;28;20221;-65
2023/04/20 07:21:50;;;;;;;11.35;9.20;;;;;;;;;;1753952;28;20225;-66
2023/04/20 07:22:42;;;;;;;12.35;8.43;;;;;;;;;;1754178;28;20251;-65
2023/04/20 07:23:33;;;;;;;9.90;9.00;;;;;;;;;;1754943;28;20198;-66
2023/04/20 07:24:26;;;;;;;10.90;8.65;;;;;;;;;;1755000;28;20267;-66
2023/04/20 07:25:17;;;;;;;10.23;8.95;;;;;;;;;;1754944;28;20202;-65
2023/04/20 07:26:09;;;;;;;9.85;8.95;;;;;;;;;;1754711;28;20190;-65
2023/04/20 07:27:01;;;;;;;9.60;8.70;;;;;;;;;;1747228;28;20210;-66
2023/04/20 07:27:53;;;;;;;11.45;10.18;;;;;;;;;;1747983;28;20198;-65
2023/04/20 07:28:45;;;;;;;9.57;8.77;;;;;;;;;;1747343;28;20584;-65
2023/04/20 07:29:37;;;;;;;9.93;8.85;;;;;;;;;;1753049;28;20284;-66
2023/04/20 07:30:28;;;;;;;9.82;8.93;;;;;;;;;;1754800;28;20704;-66
2023/04/20 07:31:20;;;;;;;9.82;8.77;;;;;;;;;;1754739;28;20197;-66
2023/04/20 07:32:11;;;;;;;8.70;7.90;;;;;;;;;;1754732;28;20302;-65
2023/04/20 07:33:03;;;;;;;9.85;8.75;;;;;;;;;;1754968;28;20194;-65
2023/04/20 07:33:54;;;;;;;10.15;9.07;;;;;;;;;;1754846;28;20232;-66
2023/04/20 07:34:46;;;;;;;10.02;9.13;;;;;;;;;;1754920;28;20197;-65
2023/04/20 07:35:38;;;;;;;9.93;8.98;;;;;;;;;;1754784;28;20201;-66
2023/04/20 07:36:31;;;;;;;9.70;8.63;;;;;;;;;;1754179;28;20205;-66
2023/04/20 07:37:23;;;;;;;9.98;8.98;;;;;;;;;;1754670;28;20201;-65
2023/04/20 07:38:16;;;;;;;9.75;8.85;;;;;;;;;;1747028;28;20727;-65
2023/04/20 07:39:07;;;;;;;9.85;8.85;;;;;;;;;;1746110;28;20194;-66
2023/04/20 07:39:59;;;;;;;10.15;8.32;;;;;;;;;;1746930;28;20263;-66
2023/04/20 07:40:50;;;;;;;10.50;9.50;;;;;;;;;;1748345;28;20225;-66
2023/04/20 07:41:42;;;;;;;10.52;9.25;;;;;;;;;;1754757;28;20202;-66
2023/04/20 07:42:33;;;;;;;10.07;9.02;;;;;;;;;;1754901;28;20235;-66
2023/04/20 07:43:26;;;;;;;11.13;10.07;;;;;;;;;;1749634;28;20202;-66
2023/04/20 07:44:17;;;;;;;11.52;8.75;;;;;;;;;;1746368;28;20666;-66
2023/04/20 07:45:10;;;;;;;9.52;8.63;;;;;;;;;;1754229;28;20198;-66
2023/04/20 07:46:01;;;;;;;12.98;10.15;;;;;;;;;;1754846;28;20247;-66
2023/04/20 07:46:54;;;;;;;10.00;9.18;;;;;;;;;;1752927;28;20229;-66
2023/04/20 07:47:50;;;;;;;10.63;9.52;;;;;;;;;;1752983;28;20206;-66
2023/04/20 07:48:41;;;;;;;10.18;9.18;;;;;;;;;;1754749;28;20202;-66
2023/04/20 07:49:36;;;;;;;10.50;9.50;;;;;;;;;;1754711;28;20201;-66
2023/04/20 07:50:28;;;;;;;9.60;8.80;;;;;;;;;;1754744;28;20740;-65
2023/04/20 07:51:19;;;;;;;12.32;9.07;;;;;;;;;;1754704;28;20212;-66
2023/04/20 07:52:13;;;;;;;9.35;8.48;;;;;;;;;;1754724;28;20779;-67
2023/04/20 07:53:04;;;;;;;10.80;9.80;;;;;;;;;;1754724;28;20198;-66
2023/04/20 07:53:56;;;;;;;9.95;8.95;;;;;;;;;;1753834;28;20653;-66
2023/04/20 07:54:48;;;;;;;9.60;8.70;;;;;;;;;;1753686;28;20198;-66
2023/04/20 07:55:40;;;;;;;10.35;9.35;;;;;;;;;;1753659;28;20608;-67
2023/04/20 07:56:31;;;;;;;10.32;9.43;;;;;;;;;;1753747;28;20704;-67
2023/04/20 07:57:23;;;;;;;11.07;9.38;;;;;;;;;;1754718;28;20729;-66
2023/04/20 07:58:15;;;;;;;10.35;9.25;;;;;;;;;;1754480;28;20204;-66
2023/04/20 07:59:07;;;;;;;9.75;8.75;;;;;;;;;;1754800;28;20656;-66
2023/04/20 07:59:58;;;;;;;12.02;8.65;;;;;;;;;;1747450;28;20202;-66
2023/04/20 08:00:50;;;;;;;10.73;9.63;;;;;;;;;;1747732;28;20227;-66
2023/04/20 08:01:41;;;;;;;10.15;9.15;;;;;;;;;;1746833;28;20199;-66
2023/04/20 08:02:33;;;;;;;13.95;8.70;;;;;;;;;;1747855;28;20263;-66
2023/04/20 08:03:26;;;;;;;9.82;8.93;;;;;;;;;;1746613;28;20967;-66
2023/04/20 08:04:18;;;;;;;10.07;9.18;;;;;;;;;;1747615;28;20191;-65
2023/04/20 08:05:09;;;;;;;10.80;9.45;;;;;;;;;;1754263;28;20205;-66
2023/04/20 08:06:01;;;;;;;10.48;9.20;;;;;;;;;;1753626;28;20202;-66
2023/04/20 08:06:53;;;;;;;9.55;8.65;;;;;;;;;;1753086;28;20216;-67
2023/04/20 08:07:46;;;;;;;9.88;8.88;;;;;;;;;;1749025;28;20721;-66
2023/04/20 08:08:37;;;;;;;10.43;9.13;;;;;;;;;;1747721;28;20198;-67
2023/04/20 08:09:29;;;;;;;9.98;9.05;;;;;;;;;;1747866;28;20206;-66
2023/04/20 08:10:21;;;;;;;9.93;8.63;;;;;;;;;;1746792;28;20199;-67
2023/04/20 08:11:14;;;;;;;10.70;9.60;;;;;;;;;;1747010;28;20219;-66
2023/04/20 08:12:06;;;;;;;10.80;9.10;;;;;;;;;;1747575;28;20245;-67
2023/04/20 08:12:58;;;;;;;10.00;9.10;;;;;;;;;;1752839;28;20190;-66
2023/04/20 08:13:49;;;;;;;10.38;9.48;;;;;;;;;;1747558;28;20293;-67
2023/04/20 08:14:41;;;;;;;10.05;9.05;;;;;;;;;;1747697;28;20218;-67
2023/04/20 08:15:32;;;;;;;9.50;8.70;;;;;;;;;;1753446;28;20202;-66
2023/04/20 08:16:25;;;;;;;10.43;9.32;;;;;;;;;;1751570;28;20213;-67
2023/04/20 08:17:16;;;;;;;9.63;8.70;;;;;;;;;;1753491;28;20209;-67
2023/04/20 08:18:08;;;;;;;9.25;8.35;;;;;;;;;;1754554;28;20201;-67
2023/04/20 08:19:00;;;;;;;9.50;8.55;;;;;;;;;;1754611;28;20198;-67
2023/04/20 08:19:52;;;;;;;10.38;9.38;;;;;;;;;;1753046;28;20200;-66
2023/04/20 08:20:44;;;;;;;9.90;9.10;;;;;;;;;;1754450;28;20700;-67
2023/04/20 08:21:37;;;;;;;10.88;9.75;;;;;;;;;;1754726;28;20202;-67
2023/04/20 08:22:28;;;;;;;10.38;8.82;;;;;;;;;;1753826;28;20204;-67
2023/04/20 08:23:26;;;;;;;10.25;9.35;;;;;;;;;;1754501;28;20326;-67
2023/04/20 08:24:17;;;;;;;9.40;8.48;;;;;;;;;;1753567;28;20266;-66
2023/04/20 08:25:10;;;;;;;10.55;9.65;;;;;;;;;;1753835;28;20198;-66
2023/04/20 08:26:01;;;;;;;9.35;8.45;;;;;;;;;;1753148;28;20206;-66
2023/04/20 08:26:53;;;;;;;9.93;9.07;;;;;;;;;;1753359;28;20688;-67
2023/04/20 08:27:44;;;;;;;9.77;8.88;;;;;;;;;;1754609;28;20217;-67
2023/04/20 08:28:36;;;;;;;11.13;10.13;;;;;;;;;;1754623;28;20205;-66
2023/04/20 08:29:27;;;;;;;10.50;9.50;;;;;;;;;;1754663;28;20687;-67
2023/04/20 08:30:19;;;;;;;10.60;9.48;;;;;;;;;;1754323;28;20193;-66
2023/04/20 08:31:12;;;;;;;9.57;8.60;;;;;;;;;;1748925;28;20195;-67
2023/04/20 08:32:07;;;;;;;10.10;9.10;;;;;;;;;;1745795;28;20187;-66
2023/04/20 08:32:58;;;;;;;9.65;8.75;;;;;;;;;;1746903;28;20210;-67
2023/04/20 08:33:51;;;;;;;10.57;9.48;;;;;;;;;;1747669;28;20206;-66
2023/04/20 08:34:42;;;;;;;9.45;8.55;;;;;;;;;;1747689;28;20230;-67
2023/04/20 08:35:34;;;;;;;9.63;8.63;;;;;;;;;;1746807;28;20289;-66
2023/04/20 08:36:25;;;;;;;10.02;9.13;;;;;;;;;;1746883;28;20576;-66
2023/04/20 08:37:17;;;;;;;10.82;9.65;;;;;;;;;;1747602;28;20202;-66
2023/04/20 08:38:08;;;;;;;10.80;9.70;;;;;;;;;;1745824;28;20217;-67
2023/04/20 08:39:08;;;;;;;13.95;9.25;;;;;;;;;;1747645;28;20190;-67
2023/04/20 08:40:00;;;;;;;10.60;9.63;;;;;;;;;;1747632;28;20863;-65
2023/04/20 08:40:51;;;;;;;10.77;9.68;;;;;;;;;;1747523;28;20218;-66
2023/04/20 08:41:43;;;;;;;11.85;9.48;;;;;;;;;;1753250;28;20201;-66
2023/04/20 08:42:34;;;;;;;11.15;10.02;;;;;;;;;;1754488;28;20202;-67
2023/04/20 08:43:26;;;;;;;10.98;9.88;;;;;;;;;;1754657;28;20252;-67
2023/04/20 08:44:17;;;;;;;10.85;9.77;;;;;;;;;;1754552;28;20198;-66
2023/04/20 08:45:09;;;;;;;10.88;9.88;;;;;;;;;;1754666;28;20208;-67
2023/04/20 08:46:01;;;;;;;14.73;9.38;;;;;;;;;;1750355;28;20236;-67
2023/04/20 08:46:53;;;;;;;9.90;8.90;;;;;;;;;;1745741;28;20643;-67
2023/04/20 08:47:46;;;;;;;10.25;9.23;;;;;;;;;;1747620;28;20297;-67
2023/04/20 08:48:37;;;;;;;10.68;9.13;;;;;;;;;;1746310;28;20209;-66
2023/04/20 08:49:30;;;;;;;10.32;9.43;;;;;;;;;;1746801;28;20199;-66
2023/04/20 08:50:21;;;;;;;11.05;9.90;;;;;;;;;;1745910;28;20206;-66
2023/04/20 08:51:15;;;;;;;10.43;9.52;;;;;;;;;;1746822;28;20203;-66
2023/04/20 08:52:09;;;;;;;10.40;9.13;;;;;;;;;;1746613;28;20226;-66
2023/04/20 08:53:02;;;;;;;10.95;10.00;;;;;;;;;;1747603;28;20260;-67
2023/04/20 08:53:55;;;;;;;10.93;9.80;;;;;;;;;;1746738;28;20207;-67
2023/04/20 08:54:49;;;;;;;11.63;10.50;;;;;;;;;;1746653;28;20226;-67
2023/04/20 08:55:40;;;;;;;9.98;9.05;;;;;;;;;;1748414;28;20205;-66
2023/04/20 08:56:34;;;;;;;11.68;10.13;;;;;;;;;;1752032;28;20202;-67
2023/04/20 08:57:26;;;;;;;11.80;10.55;;;;;;;;;;1749533;28;20202;-66
2023/04/20 08:58:18;;;;;;;11.02;10.10;;;;;;;;;;1753697;28;20212;-67
2023/04/20 08:59:09;;;;;;;11.75;10.20;;;;;;;;;;1754113;28;20669;-65
2023/04/20 09:00:04;;;;;;;12.50;11.25;;;;;;;;;;1754265;28;20569;-67
2023/04/20 09:00:56;;;;;;;12.10;10.88;;;;;;;;;;1754400;28;20443;-67
2023/04/20 09:01:49;;;;;;;11.43;10.43;;;;;;;;;;1754602;28;20201;-67
2023/04/20 09:02:53;;;;;;;11.18;9.52;;;;;;;;;;1752830;28;20202;-66
2023/04/20 09:03:44;;;;;;;11.05;10.05;;;;;;;;;;1754560;28;20254;-66
2023/04/20 09:04:36;;;;;;;10.52;9.60;;;;;;;;;;1753701;28;20702;-67
2023/04/20 09:05:28;;;;;;;10.82;9.73;;;;;;;;;;1754567;28;20205;-66
2023/04/20 09:06:21;;;;;;;10.65;9.55;;;;;;;;;;1752765;28;20201;-66
2023/04/20 09:07:17;;;;;;;11.32;10.13;;;;;;;;;;1752592;28;20266;-67
2023/04/20 09:08:10;;;;;;;12.25;10.38;;;;;;;;;;1747662;28;20201;-67
2023/04/20 09:09:01;;;;;;;11.23;8.95;;;;;;;;;;1746586;28;20195;-66
2023/04/20 09:09:58;;;;;;;10.98;9.82;;;;;;;;;;1746699;28;20662;-66
2023/04/20 09:10:49;;;;;;;11.02;9.90;;;;;;;;;;1747667;28;20234;-67
2023/04/20 09:11:41;;;;;;;9.68;8.80;;;;;;;;;;1748628;28;20748;-66
2023/04/20 09:12:40;;;;;;;9.70;8.80;;;;;;;;;;1754499;28;20228;-65
2023/04/20 09:13:32;;;;;;;10.25;9.23;;;;;;;;;;1748239;28;20194;-67
2023/04/20 09:14:23;;;;;;;11.23;9.45;;;;;;;;;;1746712;28;20211;-67
2023/04/20 09:15:24;;;;;;;12.45;9.65;;;;;;;;;;1747428;28;20347;-66
2023/04/20 09:16:15;;;;;;;10.20;9.30;;;;;;;;;;1746642;28;20215;-67
2023/04/20 09:17:07;;;;;;;10.52;9.25;;;;;;;;;;1746554;28;20202;-67
2023/04/20 09:17:58;;;;;;;10.57;9.57;;;;;;;;;;1747178;28;20206;-66
2023/04/20 09:18:53;;;;;;;11.02;9.93;;;;;;;;;;1747495;28;20199;-67
2023/04/20 09:19:45;;;;;;;12.00;9.40;;;;;;;;;;1747639;28;20202;-71
2023/04/20 09:20:37;;;;;;;11.52;9.40;;;;;;;;;;1746846;28;20218;-66
2023/04/20 09:21:28;;;;;;;12.05;9.40;;;;;;;;;;1746776;28;20203;-66
2023/04/20 09:22:29;;;;;;;9.70;8.77;;;;;;;;;;1746609;28;20199;-66
2023/04/20 09:23:20;;;;;;;10.27;9.38;;;;;;;;;;1746458;28;20202;-66
2023/04/20 09:24:13;;;;;;;10.60;9.70;;;;;;;;;;1746687;28;20198;-66
2023/04/20 09:25:13;;;;;;;10.18;9.18;;;;;;;;;;1747184;28;20209;-66
2023/04/20 09:26:05;;;;;;;11.15;10.05;;;;;;;;;;1749485;28;20210;-66
2023/04/20 09:26:56;;;;;;;12.38;11.18;;;;;;;;;;1753620;28;20212;-65
2023/04/20 09:27:56;;;;;;;12.57;11.27;;;;;;;;;;1754463;28;20205;-66
2023/04/20 09:28:47;;;;;;;13.27;11.77;;;;;;;;;;1754971;28;20202;-66
2023/04/20 09:29:39;;;;;;;12.15;10.90;;;;;;;;;;1755360;28;20194;-66
2023/04/20 09:30:36;;;;;;;11.48;10.20;;;;;;;;;;1755593;28;20575;-66
2023/04/20 09:31:29;;;;;;;11.35;10.18;;;;;;;;;;1755752;28;20198;-66
2023/04/20 09:32:21;;;;;;;10.18;9.27;;;;;;;;;;1755683;28;20201;-66
2023/04/20 09:33:13;;;;;;;10.45;9.55;;;;;;;;;;1755707;28;20204;-66
2023/04/20 09:34:04;;;;;;;10.55;9.45;;;;;;;;;;1755656;28;20198;-66
2023/04/20 09:34:56;;;;;;;11.13;10.13;;;;;;;;;;1755646;28;20202;-66
2023/04/20 09:35:47;;;;;;;10.25;9.25;;;;;;;;;;1755639;28;20197;-66
2023/04/20 09:36:40;;;;;;;9.82;8.93;;;;;;;;;;1754870;28;20202;-65
2023/04/20 09:37:32;;;;;;;9.48;8.55;;;;;;;;;;1755617;28;20245;-66
2023/04/20 09:38:26;;;;;;;9.00;8.10;;;;;;;;;;1755736;28;20203;-66
2023/04/20 09:39:18;;;;;;;10.00;8.70;;;;;;;;;;1755630;28;20198;-66
2023/04/20 09:40:11;;;;;;;9.13;8.23;;;;;;;;;;1755716;28;20805;-66
2023/04/20 09:41:04;;;;;;;9.50;8.60;;;;;;;;;;1755268;28;20220;-66
2023/04/20 09:41:59;;;;;;;9.55;8.65;;;;;;;;;;1755610;28;20208;-66
2023/04/20 09:42:52;;;;;;;9.30;8.40;;;;;;;;;;1755714;28;20681;-66
2023/04/20 09:43:45;;;;;;;9.48;8.50;;;;;;;;;;1755643;28;20635;-66
2023/04/20 09:44:37;;;;;;;8.43;7.63;;;;;;;;;;1755551;28;20730;-66
2023/04/20 09:45:29;;;;;;;9.90;8.98;;;;;;;;;;1755712;28;20654;-66
2023/04/20 09:46:20;;;;;;;10.65;9.75;;;;;;;;;;1754719;28;20205;-66
2023/04/20 09:47:16;;;;;;;9.75;8.80;;;;;;;;;;1755533;28;20202;-66
2023/04/20 09:48:08;;;;;;;9.40;8.48;;;;;;;;;;1755583;28;20224;-66
2023/04/20 09:49:00;;;;;;;10.07;9.07;;;;;;;;;;1755508;28;20193;-65
2023/04/20 09:49:51;;;;;;;10.10;9.13;;;;;;;;;;1755568;28;20236;-66
2023/04/20 09:50:43;;;;;;;11.23;9.50;;;;;;;;;;1755449;28;20221;-66
2023/04/20 09:51:35;;;;;;;10.00;9.07;;;;;;;;;;1755527;28;20197;-66
2023/04/20 09:52:28;;;;;;;11.88;9.55;;;;;;;;;;1755587;28;20232;-66
2023/04/20 09:53:19;;;;;;;10.55;9.55;;;;;;;;;;1755488;28;20194;-66
2023/04/20 09:54:12;;;;;;;10.48;9.40;;;;;;;;;;1755494;28;20282;-66
2023/04/20 09:55:04;;;;;;;9.82;8.93;;;;;;;;;;1755245;28;20201;-66
2023/04/20 09:55:57;;;;;;;10.23;9.30;;;;;;;;;;1755602;28;20293;-66
2023/04/20 09:56:50;;;;;;;11.13;9.52;;;;;;;;;;1754644;28;20201;-66
2023/04/20 09:57:43;;;;;;;10.80;9.80;;;;;;;;;;1755552;28;20225;-66
2023/04/20 09:58:34;;;;;;;9.88;8.93;;;;;;;;;;1755504;28;20296;-66
2023/04/20 09:59:26;;;;;;;12.68;9.48;;;;;;;;;;1755593;28;20204;-66
2023/04/20 10:00:18;;;;;;;10.80;9.32;;;;;;;;;;1755390;28;20229;-66
2023/04/20 10:01:10;;;;;;;10.05;9.15;;;;;;;;;;1755596;28;20318;-66
2023/04/20 10:02:01;;;;;;;9.25;8.45;;;;;;;;;;1755571;28;20602;-66
2023/04/20 10:02:54;;;;;;;9.10;8.30;;;;;;;;;;1755509;28;20270;-66
2023/04/20 10:03:45;;;;;;;9.48;8.50;;;;;;;;;;1755538;28;20201;-66
2023/04/20 10:04:37;;;;;;;10.20;9.13;;;;;;;;;;1755468;28;20205;-66
2023/04/20 10:05:35;;;;;;;10.20;9.20;;;;;;;;;;1755493;28;20202;-66
2023/04/20 10:06:29;;;;;;;10.00;9.00;;;;;;;;;;1754685;28;20248;-66
2023/04/20 10:07:24;;;;;;;9.70;8.80;;;;;;;;;;1755354;28;20561;-66
2023/04/20 10:08:17;;;;;;;10.02;9.02;;;;;;;;;;1755530;28;20289;-65
2023/04/20 10:09:08;;;;;;;11.98;8.82;;;;;;;;;;1755147;28;20594;-66
2023/04/20 10:10:07;;;;;;;10.30;9.38;;;;;;;;;;1755440;28;20217;-66
2023/04/20 10:10:58;;;;;;;10.55;9.55;;;;;;;;;;1755505;28;20218;-65